sensor_id;sensor_type;location;lat;lon;timestamp;P1;durP1;ratioP1;P2;durP2;ratioP2
41946;SDS011;27638;42.184;24.848;2022-10-20T00:01:01;23.98;;;9.55;;
41946;SDS011;27638;42.184;24.848;2022-10-20T00:03:27;19.55;;;9.65;;
41946;SDS011;27638;42.184;24.848;2022-10-20T00:05:53;20.33;;;9.27;;
41946;SDS011;27638;42.184;24.848;2022-10-20T00:08:19;17.17;;;9.73;;
41946;SDS011;27638;42.184;24.848;2022-10-20T00:10:54;18.52;;;9.60;;
41946;SDS011;27638;42.184;24.848;2022-10-20T00:13:21;20.10;;;9.02;;
41946;SDS011;27638;42.184;24.848;2022-10-20T00:15:51;18.13;;;9.68;;
41946;SDS011;27638;42.184;24.848;2022-10-20T00:18:17;18.88;;;9.45;;
41946;SDS011;27638;42.184;24.848;2022-10-20T00:20:43;20.23;;;9.90;;
41946;SDS011;27638;42.184;24.848;2022-10-20T00:23:09;22.40;;;10.40;;
41946;SDS011;27638;42.184;24.848;2022-10-20T00:25:35;20.20;;;10.93;;
41946;SDS011;27638;42.184;24.848;2022-10-20T00:28:00;17.67;;;9.32;;
41946;SDS011;27638;42.184;24.848;2022-10-20T00:30:26;19.00;;;10.43;;
41946;SDS011;27638;42.184;24.848;2022-10-20T00:32:51;17.55;;;9.93;;
41946;SDS011;27638;42.184;24.848;2022-10-20T00:35:17;17.55;;;10.27;;
41946;SDS011;27638;42.184;24.848;2022-10-20T00:37:42;16.52;;;9.90;;
41946;SDS011;27638;42.184;24.848;2022-10-20T00:40:08;18.77;;;10.95;;
41946;SDS011;27638;42.184;24.848;2022-10-20T00:42:34;21.45;;;10.68;;
41946;SDS011;27638;42.184;24.848;2022-10-20T00:44:59;20.02;;;12.05;;
41946;SDS011;27638;42.184;24.848;2022-10-20T00:47:46;23.73;;;12.30;;
41946;SDS011;27638;42.184;24.848;2022-10-20T00:50:26;22.30;;;12.43;;
41946;SDS011;27638;42.184;24.848;2022-10-20T00:52:55;24.42;;;13.30;;
41946;SDS011;27638;42.184;24.848;2022-10-20T00:55:22;26.73;;;13.02;;
41946;SDS011;27638;42.184;24.848;2022-10-20T00:57:51;20.88;;;11.75;;
41946;SDS011;27638;42.184;24.848;2022-10-20T01:00:19;21.98;;;12.75;;
41946;SDS011;27638;42.184;24.848;2022-10-20T01:02:45;21.33;;;12.23;;
41946;SDS011;27638;42.184;24.848;2022-10-20T01:05:11;23.23;;;12.63;;
41946;SDS011;27638;42.184;24.848;2022-10-20T01:07:37;21.80;;;12.65;;
41946;SDS011;27638;42.184;24.848;2022-10-20T01:10:03;33.75;;;14.32;;
41946;SDS011;27638;42.184;24.848;2022-10-20T01:15:02;30.38;;;13.45;;
41946;SDS011;27638;42.184;24.848;2022-10-20T01:17:48;25.98;;;14.07;;
41946;SDS011;27638;42.184;24.848;2022-10-20T01:28:51;32.00;;;15.30;;
41946;SDS011;27638;42.184;24.848;2022-10-20T01:33:57;24.13;;;14.77;;
41946;SDS011;27638;42.184;24.848;2022-10-20T01:36:35;20.52;;;14.10;;
41946;SDS011;27638;42.184;24.848;2022-10-20T01:41:32;23.02;;;14.68;;
41946;SDS011;27638;42.184;24.848;2022-10-20T01:44:05;24.42;;;14.55;;
41946;SDS011;27638;42.184;24.848;2022-10-20T01:46:35;26.90;;;14.55;;
41946;SDS011;27638;42.184;24.848;2022-10-20T01:49:03;26.55;;;15.30;;
41946;SDS011;27638;42.184;24.848;2022-10-20T01:51:30;30.65;;;15.57;;
41946;SDS011;27638;42.184;24.848;2022-10-20T01:53:56;27.63;;;15.38;;
41946;SDS011;27638;42.184;24.848;2022-10-20T01:56:26;22.08;;;14.50;;
41946;SDS011;27638;42.184;24.848;2022-10-20T01:59:20;23.70;;;14.70;;
41946;SDS011;27638;42.184;24.848;2022-10-20T02:04:27;26.02;;;15.73;;
41946;SDS011;27638;42.184;24.848;2022-10-20T02:07:02;27.33;;;15.73;;
41946;SDS011;27638;42.184;24.848;2022-10-20T02:09:49;29.33;;;15.25;;
41946;SDS011;27638;42.184;24.848;2022-10-20T02:12:21;24.65;;;15.68;;
41946;SDS011;27638;42.184;24.848;2022-10-20T02:17:17;25.83;;;14.90;;
41946;SDS011;27638;42.184;24.848;2022-10-20T02:19:45;34.63;;;16.48;;
41946;SDS011;27638;42.184;24.848;2022-10-20T02:22:14;24.20;;;15.13;;
41946;SDS011;27638;42.184;24.848;2022-10-20T02:24:41;22.83;;;15.30;;
41946;SDS011;27638;42.184;24.848;2022-10-20T02:27:09;26.23;;;15.98;;
41946;SDS011;27638;42.184;24.848;2022-10-20T02:29:41;27.23;;;17.02;;
41946;SDS011;27638;42.184;24.848;2022-10-20T02:32:11;28.00;;;16.30;;
41946;SDS011;27638;42.184;24.848;2022-10-20T02:34:39;26.70;;;16.85;;
41946;SDS011;27638;42.184;24.848;2022-10-20T02:37:04;23.55;;;16.67;;
41946;SDS011;27638;42.184;24.848;2022-10-20T02:39:30;28.70;;;16.90;;
41946;SDS011;27638;42.184;24.848;2022-10-20T02:41:55;25.50;;;16.67;;
41946;SDS011;27638;42.184;24.848;2022-10-20T02:44:21;30.17;;;17.52;;
41946;SDS011;27638;42.184;24.848;2022-10-20T02:46:47;28.38;;;18.48;;
41946;SDS011;27638;42.184;24.848;2022-10-20T02:49:12;32.90;;;18.17;;
41946;SDS011;27638;42.184;24.848;2022-10-20T02:51:38;29.55;;;17.98;;
41946;SDS011;27638;42.184;24.848;2022-10-20T02:54:03;31.40;;;17.58;;
41946;SDS011;27638;42.184;24.848;2022-10-20T02:56:29;27.88;;;17.45;;
41946;SDS011;27638;42.184;24.848;2022-10-20T02:58:54;28.35;;;18.75;;
41946;SDS011;27638;42.184;24.848;2022-10-20T03:01:19;34.90;;;18.92;;
41946;SDS011;27638;42.184;24.848;2022-10-20T03:03:46;29.05;;;18.33;;
41946;SDS011;27638;42.184;24.848;2022-10-20T03:06:12;27.58;;;17.65;;
41946;SDS011;27638;42.184;24.848;2022-10-20T03:08:39;31.30;;;19.08;;
41946;SDS011;27638;42.184;24.848;2022-10-20T03:11:05;30.33;;;19.58;;
41946;SDS011;27638;42.184;24.848;2022-10-20T03:13:31;34.47;;;20.20;;
41946;SDS011;27638;42.184;24.848;2022-10-20T03:15:57;28.80;;;19.50;;
41946;SDS011;27638;42.184;24.848;2022-10-20T03:18:23;32.13;;;20.15;;
41946;SDS011;27638;42.184;24.848;2022-10-20T03:20:52;29.10;;;19.98;;
41946;SDS011;27638;42.184;24.848;2022-10-20T03:23:18;33.50;;;21.50;;
41946;SDS011;27638;42.184;24.848;2022-10-20T03:25:43;33.22;;;22.17;;
41946;SDS011;27638;42.184;24.848;2022-10-20T03:28:09;30.38;;;20.40;;
41946;SDS011;27638;42.184;24.848;2022-10-20T03:30:34;33.50;;;22.05;;
41946;SDS011;27638;42.184;24.848;2022-10-20T03:32:59;32.75;;;22.45;;
41946;SDS011;27638;42.184;24.848;2022-10-20T03:35:25;34.85;;;23.42;;
41946;SDS011;27638;42.184;24.848;2022-10-20T03:37:50;34.58;;;21.83;;
41946;SDS011;27638;42.184;24.848;2022-10-20T03:40:16;30.42;;;20.98;;
41946;SDS011;27638;42.184;24.848;2022-10-20T03:42:41;38.70;;;21.42;;
41946;SDS011;27638;42.184;24.848;2022-10-20T03:45:07;32.60;;;22.65;;
41946;SDS011;27638;42.184;24.848;2022-10-20T03:47:33;36.13;;;22.45;;
41946;SDS011;27638;42.184;24.848;2022-10-20T03:49:58;33.83;;;22.73;;
41946;SDS011;27638;42.184;24.848;2022-10-20T03:52:23;33.35;;;22.27;;
41946;SDS011;27638;42.184;24.848;2022-10-20T03:54:49;33.75;;;22.42;;
41946;SDS011;27638;42.184;24.848;2022-10-20T03:57:14;33.53;;;22.77;;
41946;SDS011;27638;42.184;24.848;2022-10-20T03:59:40;38.63;;;22.80;;
41946;SDS011;27638;42.184;24.848;2022-10-20T04:02:05;36.45;;;22.95;;
41946;SDS011;27638;42.184;24.848;2022-10-20T04:04:31;36.20;;;23.33;;
41946;SDS011;27638;42.184;24.848;2022-10-20T04:06:56;41.08;;;24.13;;
41946;SDS011;27638;42.184;24.848;2022-10-20T04:09:21;36.80;;;24.80;;
41946;SDS011;27638;42.184;24.848;2022-10-20T04:11:47;41.90;;;24.17;;
41946;SDS011;27638;42.184;24.848;2022-10-20T04:14:12;36.65;;;24.77;;
41946;SDS011;27638;42.184;24.848;2022-10-20T04:16:38;38.95;;;24.38;;
41946;SDS011;27638;42.184;24.848;2022-10-20T04:19:03;35.75;;;23.63;;
41946;SDS011;27638;42.184;24.848;2022-10-20T04:21:29;37.25;;;23.60;;
41946;SDS011;27638;42.184;24.848;2022-10-20T04:23:54;34.25;;;23.65;;
41946;SDS011;27638;42.184;24.848;2022-10-20T04:26:20;33.83;;;22.67;;
41946;SDS011;27638;42.184;24.848;2022-10-20T04:28:45;35.17;;;23.48;;
41946;SDS011;27638;42.184;24.848;2022-10-20T04:31:11;35.55;;;24.13;;
41946;SDS011;27638;42.184;24.848;2022-10-20T04:33:36;34.83;;;24.00;;
41946;SDS011;27638;42.184;24.848;2022-10-20T04:36:03;42.67;;;22.67;;
41946;SDS011;27638;42.184;24.848;2022-10-20T04:38:31;39.88;;;23.75;;
41946;SDS011;27638;42.184;24.848;2022-10-20T04:40:58;31.00;;;21.38;;
41946;SDS011;27638;42.184;24.848;2022-10-20T04:43:25;32.42;;;20.63;;
41946;SDS011;27638;42.184;24.848;2022-10-20T04:45:50;30.63;;;19.63;;
41946;SDS011;27638;42.184;24.848;2022-10-20T04:48:17;30.27;;;18.58;;
41946;SDS011;27638;42.184;24.848;2022-10-20T04:50:43;27.88;;;18.55;;
41946;SDS011;27638;42.184;24.848;2022-10-20T04:53:08;29.92;;;19.38;;
41946;SDS011;27638;42.184;24.848;2022-10-20T04:55:34;36.13;;;18.85;;
41946;SDS011;27638;42.184;24.848;2022-10-20T04:58:00;29.92;;;19.10;;
41946;SDS011;27638;42.184;24.848;2022-10-20T05:00:26;33.15;;;19.48;;
41946;SDS011;27638;42.184;24.848;2022-10-20T05:02:51;37.55;;;21.38;;
41946;SDS011;27638;42.184;24.848;2022-10-20T05:05:16;38.00;;;21.27;;
41946;SDS011;27638;42.184;24.848;2022-10-20T05:07:42;37.47;;;20.02;;
41946;SDS011;27638;42.184;24.848;2022-10-20T05:10:08;35.85;;;19.27;;
41946;SDS011;27638;42.184;24.848;2022-10-20T05:12:33;33.78;;;19.75;;
41946;SDS011;27638;42.184;24.848;2022-10-20T05:14:59;31.85;;;18.27;;
41946;SDS011;27638;42.184;24.848;2022-10-20T05:17:24;31.42;;;18.58;;
41946;SDS011;27638;42.184;24.848;2022-10-20T05:19:50;43.40;;;20.38;;
41946;SDS011;27638;42.184;24.848;2022-10-20T05:22:15;45.75;;;20.05;;
41946;SDS011;27638;42.184;24.848;2022-10-20T05:24:40;34.33;;;19.65;;
41946;SDS011;27638;42.184;24.848;2022-10-20T05:27:06;34.88;;;18.27;;
41946;SDS011;27638;42.184;24.848;2022-10-20T05:29:31;27.98;;;18.75;;
41946;SDS011;27638;42.184;24.848;2022-10-20T05:31:57;32.58;;;16.70;;
41946;SDS011;27638;42.184;24.848;2022-10-20T05:34:22;30.20;;;16.55;;
41946;SDS011;27638;42.184;24.848;2022-10-20T05:36:48;32.58;;;15.98;;
41946;SDS011;27638;42.184;24.848;2022-10-20T05:39:13;32.90;;;17.15;;
41946;SDS011;27638;42.184;24.848;2022-10-20T05:41:38;35.20;;;16.73;;
41946;SDS011;27638;42.184;24.848;2022-10-20T05:44:04;28.27;;;16.20;;
41946;SDS011;27638;42.184;24.848;2022-10-20T05:46:33;29.50;;;16.02;;
41946;SDS011;27638;42.184;24.848;2022-10-20T05:49:00;28.75;;;15.52;;
41946;SDS011;27638;42.184;24.848;2022-10-20T05:51:28;32.72;;;16.60;;
41946;SDS011;27638;42.184;24.848;2022-10-20T05:53:56;29.70;;;14.93;;
41946;SDS011;27638;42.184;24.848;2022-10-20T05:56:22;29.20;;;14.90;;
41946;SDS011;27638;42.184;24.848;2022-10-20T05:58:49;28.88;;;15.15;;
41946;SDS011;27638;42.184;24.848;2022-10-20T06:01:19;28.55;;;14.10;;
41946;SDS011;27638;42.184;24.848;2022-10-20T06:03:49;32.50;;;14.87;;
41946;SDS011;27638;42.184;24.848;2022-10-20T06:06:17;22.83;;;15.05;;
41946;SDS011;27638;42.184;24.848;2022-10-20T06:08:44;24.38;;;13.77;;
41946;SDS011;27638;42.184;24.848;2022-10-20T06:11:11;27.00;;;14.82;;
41946;SDS011;27638;42.184;24.848;2022-10-20T06:13:38;25.77;;;15.10;;
41946;SDS011;27638;42.184;24.848;2022-10-20T06:16:04;29.85;;;15.20;;
41946;SDS011;27638;42.184;24.848;2022-10-20T06:18:31;27.48;;;13.77;;
41946;SDS011;27638;42.184;24.848;2022-10-20T06:20:58;25.98;;;13.77;;
41946;SDS011;27638;42.184;24.848;2022-10-20T06:23:25;26.30;;;13.30;;
41946;SDS011;27638;42.184;24.848;2022-10-20T06:25:50;22.35;;;13.27;;
41946;SDS011;27638;42.184;24.848;2022-10-20T06:28:15;20.90;;;12.98;;
41946;SDS011;27638;42.184;24.848;2022-10-20T06:30:41;20.25;;;12.90;;
41946;SDS011;27638;42.184;24.848;2022-10-20T06:33:06;29.05;;;13.48;;
41946;SDS011;27638;42.184;24.848;2022-10-20T06:35:36;23.65;;;13.68;;
41946;SDS011;27638;42.184;24.848;2022-10-20T06:38:02;33.80;;;14.55;;
41946;SDS011;27638;42.184;24.848;2022-10-20T06:40:28;24.33;;;13.05;;
41946;SDS011;27638;42.184;24.848;2022-10-20T06:42:53;32.33;;;12.68;;
41946;SDS011;27638;42.184;24.848;2022-10-20T06:45:19;21.13;;;12.60;;
41946;SDS011;27638;42.184;24.848;2022-10-20T06:47:44;23.17;;;12.43;;
41946;SDS011;27638;42.184;24.848;2022-10-20T06:50:10;21.58;;;11.27;;
41946;SDS011;27638;42.184;24.848;2022-10-20T06:52:35;24.05;;;12.27;;
41946;SDS011;27638;42.184;24.848;2022-10-20T06:55:00;24.75;;;11.98;;
41946;SDS011;27638;42.184;24.848;2022-10-20T06:57:26;18.40;;;11.25;;
41946;SDS011;27638;42.184;24.848;2022-10-20T06:59:51;26.83;;;12.25;;
41946;SDS011;27638;42.184;24.848;2022-10-20T07:02:17;20.95;;;11.85;;
41946;SDS011;27638;42.184;24.848;2022-10-20T07:04:42;21.40;;;10.82;;
41946;SDS011;27638;42.184;24.848;2022-10-20T07:07:07;26.20;;;10.70;;
41946;SDS011;27638;42.184;24.848;2022-10-20T07:09:33;20.35;;;11.07;;
41946;SDS011;27638;42.184;24.848;2022-10-20T07:11:58;17.10;;;9.88;;
41946;SDS011;27638;42.184;24.848;2022-10-20T07:14:24;19.83;;;10.82;;
41946;SDS011;27638;42.184;24.848;2022-10-20T07:16:49;19.92;;;10.75;;
41946;SDS011;27638;42.184;24.848;2022-10-20T07:19:14;20.33;;;12.23;;
41946;SDS011;27638;42.184;24.848;2022-10-20T07:21:40;20.77;;;10.45;;
41946;SDS011;27638;42.184;24.848;2022-10-20T07:24:06;22.73;;;10.73;;
41946;SDS011;27638;42.184;24.848;2022-10-20T07:26:32;25.15;;;10.10;;
41946;SDS011;27638;42.184;24.848;2022-10-20T07:29:00;20.58;;;9.98;;
41946;SDS011;27638;42.184;24.848;2022-10-20T07:31:31;16.05;;;9.88;;
41946;SDS011;27638;42.184;24.848;2022-10-20T07:33:59;22.95;;;9.65;;
41946;SDS011;27638;42.184;24.848;2022-10-20T07:36:26;23.02;;;10.32;;
41946;SDS011;27638;42.184;24.848;2022-10-20T07:38:54;13.45;;;9.18;;
41946;SDS011;27638;42.184;24.848;2022-10-20T07:41:21;10.60;;;8.43;;
41946;SDS011;27638;42.184;24.848;2022-10-20T07:43:47;16.60;;;9.25;;
41946;SDS011;27638;42.184;24.848;2022-10-20T07:46:13;15.38;;;9.43;;
41946;SDS011;27638;42.184;24.848;2022-10-20T07:48:39;16.25;;;9.18;;
41946;SDS011;27638;42.184;24.848;2022-10-20T07:51:23;18.45;;;10.27;;
41946;SDS011;27638;42.184;24.848;2022-10-20T07:56:22;15.55;;;9.30;;
41946;SDS011;27638;42.184;24.848;2022-10-20T07:58:48;23.83;;;10.75;;
41946;SDS011;27638;42.184;24.848;2022-10-20T08:01:14;11.60;;;8.38;;
41946;SDS011;27638;42.184;24.848;2022-10-20T08:03:39;14.15;;;8.75;;
41946;SDS011;27638;42.184;24.848;2022-10-20T08:06:05;17.10;;;8.32;;
41946;SDS011;27638;42.184;24.848;2022-10-20T08:08:31;18.33;;;8.25;;
41946;SDS011;27638;42.184;24.848;2022-10-20T08:10:57;15.20;;;8.52;;
41946;SDS011;27638;42.184;24.848;2022-10-20T08:13:25;23.67;;;8.77;;
41946;SDS011;27638;42.184;24.848;2022-10-20T08:15:51;18.33;;;8.52;;
41946;SDS011;27638;42.184;24.848;2022-10-20T08:18:17;19.77;;;8.63;;
41946;SDS011;27638;42.184;24.848;2022-10-20T08:20:43;17.05;;;7.82;;
41946;SDS011;27638;42.184;24.848;2022-10-20T08:23:09;22.35;;;7.68;;
41946;SDS011;27638;42.184;24.848;2022-10-20T08:25:38;13.32;;;8.20;;
41946;SDS011;27638;42.184;24.848;2022-10-20T08:28:04;17.95;;;7.95;;
41946;SDS011;27638;42.184;24.848;2022-10-20T08:30:29;12.55;;;7.63;;
41946;SDS011;27638;42.184;24.848;2022-10-20T08:32:55;17.90;;;7.22;;
41946;SDS011;27638;42.184;24.848;2022-10-20T08:35:21;18.77;;;8.02;;
41946;SDS011;27638;42.184;24.848;2022-10-20T08:37:47;15.25;;;7.50;;
41946;SDS011;27638;42.184;24.848;2022-10-20T08:40:13;17.35;;;7.13;;
41946;SDS011;27638;42.184;24.848;2022-10-20T08:42:41;10.50;;;6.75;;
41946;SDS011;27638;42.184;24.848;2022-10-20T08:45:16;14.02;;;6.72;;
41946;SDS011;27638;42.184;24.848;2022-10-20T08:47:44;18.63;;;6.60;;
41946;SDS011;27638;42.184;24.848;2022-10-20T08:50:13;11.05;;;6.90;;
41946;SDS011;27638;42.184;24.848;2022-10-20T08:52:41;13.45;;;6.55;;
41946;SDS011;27638;42.184;24.848;2022-10-20T08:55:20;9.63;;;6.47;;
41946;SDS011;27638;42.184;24.848;2022-10-20T08:58:16;11.73;;;6.38;;
41946;SDS011;27638;42.184;24.848;2022-10-20T09:00:41;9.45;;;6.07;;
41946;SDS011;27638;42.184;24.848;2022-10-20T09:05:50;14.98;;;7.30;;
41946;SDS011;27638;42.184;24.848;2022-10-20T09:08:20;14.25;;;7.22;;
41946;SDS011;27638;42.184;24.848;2022-10-20T09:10:50;20.83;;;8.02;;
41946;SDS011;27638;42.184;24.848;2022-10-20T09:13:24;13.20;;;7.40;;
41946;SDS011;27638;42.184;24.848;2022-10-20T09:16:02;9.55;;;6.00;;
41946;SDS011;27638;42.184;24.848;2022-10-20T09:18:31;10.70;;;5.40;;
41946;SDS011;27638;42.184;24.848;2022-10-20T09:20:59;17.98;;;7.18;;
41946;SDS011;27638;42.184;24.848;2022-10-20T09:23:50;12.85;;;6.72;;
41946;SDS011;27638;42.184;24.848;2022-10-20T09:26:31;10.10;;;6.22;;
41946;SDS011;27638;42.184;24.848;2022-10-20T09:29:03;14.02;;;6.72;;
41946;SDS011;27638;42.184;24.848;2022-10-20T09:34:26;8.20;;;5.75;;
41946;SDS011;27638;42.184;24.848;2022-10-20T09:36:54;9.18;;;6.10;;
41946;SDS011;27638;42.184;24.848;2022-10-20T09:39:26;9.48;;;6.20;;
41946;SDS011;27638;42.184;24.848;2022-10-20T09:42:01;15.25;;;6.10;;
41946;SDS011;27638;42.184;24.848;2022-10-20T09:44:38;10.63;;;6.00;;
41946;SDS011;27638;42.184;24.848;2022-10-20T09:47:13;16.23;;;5.47;;
41946;SDS011;27638;42.184;24.848;2022-10-20T09:49:39;14.07;;;5.88;;
41946;SDS011;27638;42.184;24.848;2022-10-20T09:52:40;10.10;;;5.60;;
41946;SDS011;27638;42.184;24.848;2022-10-20T09:55:30;8.40;;;6.05;;
41946;SDS011;27638;42.184;24.848;2022-10-20T09:57:59;8.63;;;5.38;;
41946;SDS011;27638;42.184;24.848;2022-10-20T10:00:29;12.63;;;5.72;;
41946;SDS011;27638;42.184;24.848;2022-10-20T10:03:09;7.93;;;6.07;;
41946;SDS011;27638;42.184;24.848;2022-10-20T10:08:25;10.10;;;5.32;;
41946;SDS011;27638;42.184;24.848;2022-10-20T10:13:24;16.80;;;8.32;;
41946;SDS011;27638;42.184;24.848;2022-10-20T10:16:05;10.20;;;5.60;;
41946;SDS011;27638;42.184;24.848;2022-10-20T10:18:33;10.65;;;5.05;;
41946;SDS011;27638;42.184;24.848;2022-10-20T10:21:01;8.48;;;5.32;;
41946;SDS011;27638;42.184;24.848;2022-10-20T10:23:32;7.00;;;4.78;;
41946;SDS011;27638;42.184;24.848;2022-10-20T10:26:00;10.73;;;5.05;;
41946;SDS011;27638;42.184;24.848;2022-10-20T10:28:37;10.02;;;5.82;;
41946;SDS011;27638;42.184;24.848;2022-10-20T10:31:04;7.57;;;4.90;;
41946;SDS011;27638;42.184;24.848;2022-10-20T10:33:33;8.18;;;4.90;;
41946;SDS011;27638;42.184;24.848;2022-10-20T10:36:00;11.98;;;5.72;;
41946;SDS011;27638;42.184;24.848;2022-10-20T10:38:28;7.70;;;5.22;;
41946;SDS011;27638;42.184;24.848;2022-10-20T10:41:10;7.45;;;5.25;;
41946;SDS011;27638;42.184;24.848;2022-10-20T10:46:36;7.90;;;4.93;;
41946;SDS011;27638;42.184;24.848;2022-10-20T10:57:31;8.43;;;5.78;;
41946;SDS011;27638;42.184;24.848;2022-10-20T11:00:12;12.85;;;5.05;;
41946;SDS011;27638;42.184;24.848;2022-10-20T11:03:02;10.20;;;4.97;;
41946;SDS011;27638;42.184;24.848;2022-10-20T11:05:50;11.00;;;5.32;;
41946;SDS011;27638;42.184;24.848;2022-10-20T11:15:05;10.52;;;4.88;;
41946;SDS011;27638;42.184;24.848;2022-10-20T11:31:00;10.13;;;5.57;;
41946;SDS011;27638;42.184;24.848;2022-10-20T11:33:38;9.27;;;5.85;;
41946;SDS011;27638;42.184;24.848;2022-10-20T11:36:18;8.68;;;4.50;;
41946;SDS011;27638;42.184;24.848;2022-10-20T11:41:22;8.75;;;4.10;;
41946;SDS011;27638;42.184;24.848;2022-10-20T11:43:58;9.18;;;5.38;;
41946;SDS011;27638;42.184;24.848;2022-10-20T11:46:29;12.70;;;4.45;;
41946;SDS011;27638;42.184;24.848;2022-10-20T11:49:07;8.23;;;4.15;;
41946;SDS011;27638;42.184;24.848;2022-10-20T11:51:43;11.15;;;4.88;;
41946;SDS011;27638;42.184;24.848;2022-10-20T12:14:27;8.63;;;4.63;;
41946;SDS011;27638;42.184;24.848;2022-10-20T12:17:19;7.85;;;3.78;;
41946;SDS011;27638;42.184;24.848;2022-10-20T12:22:48;7.82;;;4.32;;
41946;SDS011;27638;42.184;24.848;2022-10-20T12:28:31;11.85;;;4.00;;
41946;SDS011;27638;42.184;24.848;2022-10-20T12:33:17;11.98;;;4.20;;
41946;SDS011;27638;42.184;24.848;2022-10-20T12:38:42;8.50;;;3.97;;
41946;SDS011;27638;42.184;24.848;2022-10-20T12:41:29;14.50;;;8.63;;
41946;SDS011;27638;42.184;24.848;2022-10-20T12:44:05;6.82;;;3.80;;
41946;SDS011;27638;42.184;24.848;2022-10-20T12:46:39;10.90;;;3.85;;
41946;SDS011;27638;42.184;24.848;2022-10-20T12:49:07;12.05;;;4.57;;
41946;SDS011;27638;42.184;24.848;2022-10-20T12:51:48;11.18;;;5.10;;
41946;SDS011;27638;42.184;24.848;2022-10-20T12:54:22;13.95;;;8.70;;
41946;SDS011;27638;42.184;24.848;2022-10-20T12:57:05;6.00;;;3.97;;
41946;SDS011;27638;42.184;24.848;2022-10-20T13:02:52;7.60;;;4.38;;
41946;SDS011;27638;42.184;24.848;2022-10-20T13:18:01;5.57;;;4.53;;
41946;SDS011;27638;42.184;24.848;2022-10-20T13:28:47;10.18;;;5.43;;
41946;SDS011;27638;42.184;24.848;2022-10-20T13:34:04;15.93;;;4.25;;
41946;SDS011;27638;42.184;24.848;2022-10-20T13:36:46;5.38;;;3.65;;
41946;SDS011;27638;42.184;24.848;2022-10-20T13:42:31;9.57;;;3.53;;
41946;SDS011;27638;42.184;24.848;2022-10-20T13:50:52;9.63;;;4.00;;
41946;SDS011;27638;42.184;24.848;2022-10-20T13:53:30;7.28;;;3.95;;
41946;SDS011;27638;42.184;24.848;2022-10-20T13:55:59;9.77;;;3.83;;
41946;SDS011;27638;42.184;24.848;2022-10-20T13:58:29;11.95;;;4.20;;
41946;SDS011;27638;42.184;24.848;2022-10-20T14:01:05;16.48;;;4.22;;
41946;SDS011;27638;42.184;24.848;2022-10-20T14:03:45;7.38;;;4.15;;
41946;SDS011;27638;42.184;24.848;2022-10-20T14:09:14;5.47;;;4.15;;
41946;SDS011;27638;42.184;24.848;2022-10-20T14:11:43;17.67;;;4.28;;
41946;SDS011;27638;42.184;24.848;2022-10-20T14:14:14;6.45;;;4.30;;
41946;SDS011;27638;42.184;24.848;2022-10-20T14:16:53;5.45;;;3.60;;
41946;SDS011;27638;42.184;24.848;2022-10-20T14:19:23;6.72;;;3.47;;
41946;SDS011;27638;42.184;24.848;2022-10-20T14:21:56;7.55;;;3.90;;
41946;SDS011;27638;42.184;24.848;2022-10-20T14:27:02;8.02;;;4.07;;
41946;SDS011;27638;42.184;24.848;2022-10-20T14:29:31;5.05;;;3.50;;
41946;SDS011;27638;42.184;24.848;2022-10-20T14:32:01;7.10;;;3.97;;
41946;SDS011;27638;42.184;24.848;2022-10-20T14:34:28;7.35;;;3.97;;
41946;SDS011;27638;42.184;24.848;2022-10-20T14:36:58;11.55;;;4.43;;
41946;SDS011;27638;42.184;24.848;2022-10-20T14:39:28;8.50;;;3.92;;
41946;SDS011;27638;42.184;24.848;2022-10-20T14:42:01;9.60;;;4.63;;
41946;SDS011;27638;42.184;24.848;2022-10-20T14:44:29;9.00;;;3.88;;
41946;SDS011;27638;42.184;24.848;2022-10-20T14:46:56;7.45;;;3.60;;
41946;SDS011;27638;42.184;24.848;2022-10-20T14:49:29;10.98;;;4.45;;
41946;SDS011;27638;42.184;24.848;2022-10-20T14:52:05;10.40;;;4.38;;
41946;SDS011;27638;42.184;24.848;2022-10-20T14:54:43;9.18;;;4.25;;
41946;SDS011;27638;42.184;24.848;2022-10-20T14:59:58;7.53;;;4.22;;
41946;SDS011;27638;42.184;24.848;2022-10-20T15:02:29;9.65;;;3.90;;
41946;SDS011;27638;42.184;24.848;2022-10-20T15:07:50;14.43;;;4.13;;
41946;SDS011;27638;42.184;24.848;2022-10-20T15:10:17;14.23;;;4.32;;
41946;SDS011;27638;42.184;24.848;2022-10-20T15:12:46;11.88;;;4.35;;
41946;SDS011;27638;42.184;24.848;2022-10-20T15:15:17;15.88;;;4.57;;
41946;SDS011;27638;42.184;24.848;2022-10-20T15:23:19;13.90;;;4.57;;
41946;SDS011;27638;42.184;24.848;2022-10-20T15:30:45;50.60;;;7.28;;
41946;SDS011;27638;42.184;24.848;2022-10-20T15:33:11;42.72;;;6.18;;
41946;SDS011;27638;42.184;24.848;2022-10-20T15:35:37;75.97;;;7.05;;
41946;SDS011;27638;42.184;24.848;2022-10-20T15:38:08;39.13;;;5.75;;
41946;SDS011;27638;42.184;24.848;2022-10-20T15:40:33;35.88;;;5.75;;
41946;SDS011;27638;42.184;24.848;2022-10-20T15:42:59;32.75;;;6.05;;
41946;SDS011;27638;42.184;24.848;2022-10-20T15:45:24;22.05;;;5.75;;
41946;SDS011;27638;42.184;24.848;2022-10-20T15:47:56;24.35;;;5.97;;
41946;SDS011;27638;42.184;24.848;2022-10-20T15:50:21;22.10;;;5.68;;
41946;SDS011;27638;42.184;24.848;2022-10-20T15:52:47;32.65;;;7.47;;
41946;SDS011;27638;42.184;24.848;2022-10-20T15:55:19;59.38;;;13.25;;
41946;SDS011;27638;42.184;24.848;2022-10-20T15:57:58;66.90;;;13.20;;
41946;SDS011;27638;42.184;24.848;2022-10-20T16:00:25;31.23;;;7.43;;
41946;SDS011;27638;42.184;24.848;2022-10-20T16:02:52;28.55;;;6.72;;
41946;SDS011;27638;42.184;24.848;2022-10-20T16:05:19;21.25;;;4.72;;
41946;SDS011;27638;42.184;24.848;2022-10-20T16:07:47;10.20;;;4.20;;
41946;SDS011;27638;42.184;24.848;2022-10-20T16:10:14;10.07;;;4.30;;
41946;SDS011;27638;42.184;24.848;2022-10-20T16:12:40;5.90;;;3.70;;
41946;SDS011;27638;42.184;24.848;2022-10-20T16:15:06;11.63;;;4.22;;
41946;SDS011;27638;42.184;24.848;2022-10-20T16:17:32;12.02;;;4.00;;
41946;SDS011;27638;42.184;24.848;2022-10-20T16:19:58;9.38;;;3.78;;
41946;SDS011;27638;42.184;24.848;2022-10-20T16:22:23;12.15;;;4.78;;
41946;SDS011;27638;42.184;24.848;2022-10-20T16:24:50;21.88;;;6.05;;
41946;SDS011;27638;42.184;24.848;2022-10-20T16:27:16;14.68;;;5.75;;
41946;SDS011;27638;42.184;24.848;2022-10-20T16:29:41;14.10;;;5.82;;
41946;SDS011;27638;42.184;24.848;2022-10-20T16:32:07;14.02;;;6.25;;
41946;SDS011;27638;42.184;24.848;2022-10-20T16:34:32;12.90;;;6.60;;
41946;SDS011;27638;42.184;24.848;2022-10-20T16:36:58;13.45;;;6.72;;
41946;SDS011;27638;42.184;24.848;2022-10-20T16:39:23;14.27;;;7.55;;
41946;SDS011;27638;42.184;24.848;2022-10-20T16:41:48;17.05;;;8.50;;
41946;SDS011;27638;42.184;24.848;2022-10-20T16:44:14;14.25;;;7.80;;
41946;SDS011;27638;42.184;24.848;2022-10-20T16:46:39;18.35;;;8.25;;
41946;SDS011;27638;42.184;24.848;2022-10-20T16:49:05;21.80;;;8.80;;
41946;SDS011;27638;42.184;24.848;2022-10-20T16:51:31;27.33;;;9.25;;
41946;SDS011;27638;42.184;24.848;2022-10-20T16:53:57;21.33;;;9.32;;
41946;SDS011;27638;42.184;24.848;2022-10-20T16:56:23;24.77;;;7.82;;
41946;SDS011;27638;42.184;24.848;2022-10-20T16:58:49;20.13;;;9.82;;
41946;SDS011;27638;42.184;24.848;2022-10-20T17:01:16;20.15;;;9.75;;
41946;SDS011;27638;42.184;24.848;2022-10-20T17:03:44;21.73;;;9.98;;
41946;SDS011;27638;42.184;24.848;2022-10-20T17:06:12;29.40;;;11.93;;